sensor_id;sensor_type;location;lat;lon;timestamp;temperature;humidity
20070;DHT22;10195;50.868;4.382;2022-09-13T00:01:16;21.20;99.90
20070;DHT22;10195;50.868;4.382;2022-09-13T00:03:42;21.10;99.90
20070;DHT22;10195;50.868;4.382;2022-09-13T00:06:14;21.10;99.90
20070;DHT22;10195;50.868;4.382;2022-09-13T00:08:40;21.10;99.90
20070;DHT22;10195;50.868;4.382;2022-09-13T00:11:07;21.10;99.90
20070;DHT22;10195;50.868;4.382;2022-09-13T00:13:38;21.00;99.90
20070;DHT22;10195;50.868;4.382;2022-09-13T00:16:03;21.00;99.90
20070;DHT22;10195;50.868;4.382;2022-09-13T00:18:35;21.00;99.90
20070;DHT22;10195;50.868;4.382;2022-09-13T00:21:05;21.00;99.90
20070;DHT22;10195;50.868;4.382;2022-09-13T00:23:31;20.90;99.90
20070;DHT22;10195;50.868;4.382;2022-09-13T00:26:11;20.90;99.90
20070;DHT22;10195;50.868;4.382;2022-09-13T00:28:38;20.80;99.90
20070;DHT22;10195;50.868;4.382;2022-09-13T00:31:06;20.90;99.90
20070;DHT22;10195;50.868;4.382;2022-09-13T00:33:32;20.90;99.90
20070;DHT22;10195;50.868;4.382;2022-09-13T00:35:58;21.00;99.90
20070;DHT22;10195;50.868;4.382;2022-09-13T00:38:27;21.00;99.90
20070;DHT22;10195;50.868;4.382;2022-09-13T00:40:52;21.10;99.90
20070;DHT22;10195;50.868;4.382;2022-09-13T00:43:20;21.10;99.90
20070;DHT22;10195;50.868;4.382;2022-09-13T00:46:03;21.10;99.90
20070;DHT22;10195;50.868;4.382;2022-09-13T00:48:29;21.10;99.90
20070;DHT22;10195;50.868;4.382;2022-09-13T00:50:55;21.10;99.90
20070;DHT22;10195;50.868;4.382;2022-09-13T00:53:24;21.20;99.90
20070;DHT22;10195;50.868;4.382;2022-09-13T00:56:03;21.10;99.90
20070;DHT22;10195;50.868;4.382;2022-09-13T00:58:37;21.20;99.90
20070;DHT22;10195;50.868;4.382;2022-09-13T01:01:07;21.30;99.90
20070;DHT22;10195;50.868;4.382;2022-09-13T01:03:34;21.30;99.90
20070;DHT22;10195;50.868;4.382;2022-09-13T01:06:10;21.40;99.90
20070;DHT22;10195;50.868;4.382;2022-09-13T01:08:37;21.30;99.90
20070;DHT22;10195;50.868;4.382;2022-09-13T01:11:07;21.10;99.90
20070;DHT22;10195;50.868;4.382;2022-09-13T01:13:36;21.00;99.90
20070;DHT22;10195;50.868;4.382;2022-09-13T01:16:03;20.90;99.90
20070;DHT22;10195;50.868;4.382;2022-09-13T01:18:28;21.00;99.90
20070;DHT22;10195;50.868;4.382;2022-09-13T01:24:06;21.20;99.90
20070;DHT22;10195;50.868;4.382;2022-09-13T01:32:32;21.30;99.90
20070;DHT22;10195;50.868;4.382;2022-09-13T01:45:38;21.30;99.90
20070;DHT22;10195;50.868;4.382;2022-09-13T01:48:44;21.30;99.90
20070;DHT22;10195;50.868;4.382;2022-09-13T01:51:33;21.40;99.90
20070;DHT22;10195;50.868;4.382;2022-09-13T01:54:21;21.30;99.90
20070;DHT22;10195;50.868;4.382;2022-09-13T01:57:15;21.20;99.90
20070;DHT22;10195;50.868;4.382;2022-09-13T02:02:39;20.80;99.90
20070;DHT22;10195;50.868;4.382;2022-09-13T02:05:44;21.00;99.90
20070;DHT22;10195;50.868;4.382;2022-09-13T02:08:39;21.10;99.90
20070;DHT22;10195;50.868;4.382;2022-09-13T02:11:10;21.20;99.90
20070;DHT22;10195;50.868;4.382;2022-09-13T02:13:40;21.20;99.90
20070;DHT22;10195;50.868;4.382;2022-09-13T02:16:26;21.40;99.90
20070;DHT22;10195;50.868;4.382;2022-09-13T02:18:59;21.30;99.90
20070;DHT22;10195;50.868;4.382;2022-09-13T02:21:28;21.20;99.90
20070;DHT22;10195;50.868;4.382;2022-09-13T02:24:04;21.20;99.90
20070;DHT22;10195;50.868;4.382;2022-09-13T02:26:33;21.10;99.90
20070;DHT22;10195;50.868;4.382;2022-09-13T02:29:02;21.00;99.90
20070;DHT22;10195;50.868;4.382;2022-09-13T02:31:38;20.90;99.90
20070;DHT22;10195;50.868;4.382;2022-09-13T02:34:11;21.00;99.90
20070;DHT22;10195;50.868;4.382;2022-09-13T02:36:39;21.10;99.90
20070;DHT22;10195;50.868;4.382;2022-09-13T02:39:12;21.10;99.90
20070;DHT22;10195;50.868;4.382;2022-09-13T02:41:57;21.10;99.90
20070;DHT22;10195;50.868;4.382;2022-09-13T02:44:47;21.00;99.90
20070;DHT22;10195;50.868;4.382;2022-09-13T02:58:08;20.90;99.90
20070;DHT22;10195;50.868;4.382;2022-09-13T03:00:35;20.80;99.90
20070;DHT22;10195;50.868;4.382;2022-09-13T03:03:07;20.70;99.90
20070;DHT22;10195;50.868;4.382;2022-09-13T03:05:33;20.70;99.90
20070;DHT22;10195;50.868;4.382;2022-09-13T03:08:00;20.60;99.90
20070;DHT22;10195;50.868;4.382;2022-09-13T03:10:33;20.60;99.90
20070;DHT22;10195;50.868;4.382;2022-09-13T03:27:23;20.90;99.90
20070;DHT22;10195;50.868;4.382;2022-09-13T03:30:06;20.90;99.90
20070;DHT22;10195;50.868;4.382;2022-09-13T03:32:52;20.90;99.90
20070;DHT22;10195;50.868;4.382;2022-09-13T03:35:38;21.00;99.90
20070;DHT22;10195;50.868;4.382;2022-09-13T03:38:08;20.90;99.90
20070;DHT22;10195;50.868;4.382;2022-09-13T03:40:53;20.90;99.90
20070;DHT22;10195;50.868;4.382;2022-09-13T03:43:24;20.80;99.90
20070;DHT22;10195;50.868;4.382;2022-09-13T03:45:59;20.80;99.90
20070;DHT22;10195;50.868;4.382;2022-09-13T03:48:25;20.90;99.90
20070;DHT22;10195;50.868;4.382;2022-09-13T03:50:52;20.80;99.90
20070;DHT22;10195;50.868;4.382;2022-09-13T03:53:22;20.90;99.90
20070;DHT22;10195;50.868;4.382;2022-09-13T03:55:49;20.90;99.90
20070;DHT22;10195;50.868;4.382;2022-09-13T03:58:17;20.70;99.90
20070;DHT22;10195;50.868;4.382;2022-09-13T04:00:43;20.80;99.90
20070;DHT22;10195;50.868;4.382;2022-09-13T04:03:10;20.80;99.90
20070;DHT22;10195;50.868;4.382;2022-09-13T04:05:36;20.90;99.90
20070;DHT22;10195;50.868;4.382;2022-09-13T04:08:03;20.90;99.90
20070;DHT22;10195;50.868;4.382;2022-09-13T04:10:31;20.90;99.90
20070;DHT22;10195;50.868;4.382;2022-09-13T04:12:57;20.90;99.90
20070;DHT22;10195;50.868;4.382;2022-09-13T04:15:24;20.90;99.90
20070;DHT22;10195;50.868;4.382;2022-09-13T04:17:50;21.00;99.90
20070;DHT22;10195;50.868;4.382;2022-09-13T04:20:15;21.00;99.90
20070;DHT22;10195;50.868;4.382;2022-09-13T04:22:41;21.00;99.90
20070;DHT22;10195;50.868;4.382;2022-09-13T04:25:07;21.00;99.90
20070;DHT22;10195;50.868;4.382;2022-09-13T04:27:33;21.00;99.90
20070;DHT22;10195;50.868;4.382;2022-09-13T04:30:00;21.00;99.90
20070;DHT22;10195;50.868;4.382;2022-09-13T04:32:26;21.10;99.90
20070;DHT22;10195;50.868;4.382;2022-09-13T04:34:52;21.10;99.90
20070;DHT22;10195;50.868;4.382;2022-09-13T04:37:18;21.00;99.90
20070;DHT22;10195;50.868;4.382;2022-09-13T04:39:45;20.80;99.90
20070;DHT22;10195;50.868;4.382;2022-09-13T04:42:11;20.90;99.90
20070;DHT22;10195;50.868;4.382;2022-09-13T04:44:37;20.90;99.90
20070;DHT22;10195;50.868;4.382;2022-09-13T04:47:03;21.00;99.90
20070;DHT22;10195;50.868;4.382;2022-09-13T04:49:30;21.00;99.90
20070;DHT22;10195;50.868;4.382;2022-09-13T04:51:55;21.10;99.90
20070;DHT22;10195;50.868;4.382;2022-09-13T04:54:21;21.00;99.90
20070;DHT22;10195;50.868;4.382;2022-09-13T04:56:47;21.10;99.90
20070;DHT22;10195;50.868;4.382;2022-09-13T04:59:14;21.20;99.90
20070;DHT22;10195;50.868;4.382;2022-09-13T05:01:40;21.10;99.90
20070;DHT22;10195;50.868;4.382;2022-09-13T05:04:06;21.10;99.90
20070;DHT22;10195;50.868;4.382;2022-09-13T05:06:32;21.00;99.90
20070;DHT22;10195;50.868;4.382;2022-09-13T05:08:58;21.10;99.90
20070;DHT22;10195;50.868;4.382;2022-09-13T05:11:25;21.20;99.90
20070;DHT22;10195;50.868;4.382;2022-09-13T05:13:53;21.10;99.90
20070;DHT22;10195;50.868;4.382;2022-09-13T05:16:24;21.10;99.90
20070;DHT22;10195;50.868;4.382;2022-09-13T05:18:51;21.10;99.90
20070;DHT22;10195;50.868;4.382;2022-09-13T05:21:17;21.00;99.90
20070;DHT22;10195;50.868;4.382;2022-09-13T05:23:43;21.00;99.90
20070;DHT22;10195;50.868;4.382;2022-09-13T05:26:08;20.90;99.90
20070;DHT22;10195;50.868;4.382;2022-09-13T05:28:35;20.80;99.90
20070;DHT22;10195;50.868;4.382;2022-09-13T05:31:24;20.90;99.90
20070;DHT22;10195;50.868;4.382;2022-09-13T05:34:01;21.00;99.90
20070;DHT22;10195;50.868;4.382;2022-09-13T05:36:28;20.90;99.90
20070;DHT22;10195;50.868;4.382;2022-09-13T05:38:54;20.90;99.90
20070;DHT22;10195;50.868;4.382;2022-09-13T05:41:20;20.90;99.90
20070;DHT22;10195;50.868;4.382;2022-09-13T05:43:46;20.90;99.90
20070;DHT22;10195;50.868;4.382;2022-09-13T05:46:16;20.90;99.90
20070;DHT22;10195;50.868;4.382;2022-09-13T05:48:43;21.00;99.90
20070;DHT22;10195;50.868;4.382;2022-09-13T05:51:11;21.00;99.90
20070;DHT22;10195;50.868;4.382;2022-09-13T05:53:38;21.00;99.90
20070;DHT22;10195;50.868;4.382;2022-09-13T05:56:05;21.10;99.90
20070;DHT22;10195;50.868;4.382;2022-09-13T05:58:31;21.20;99.90
20070;DHT22;10195;50.868;4.382;2022-09-13T06:00:58;21.20;99.90
20070;DHT22;10195;50.868;4.382;2022-09-13T06:03:23;21.30;99.90
20070;DHT22;10195;50.868;4.382;2022-09-13T06:05:53;21.30;99.90
20070;DHT22;10195;50.868;4.382;2022-09-13T06:08:18;21.20;99.90
20070;DHT22;10195;50.868;4.382;2022-09-13T06:10:52;21.10;99.90
20070;DHT22;10195;50.868;4.382;2022-09-13T06:13:19;21.10;99.90
20070;DHT22;10195;50.868;4.382;2022-09-13T06:15:44;21.10;99.90
20070;DHT22;10195;50.868;4.382;2022-09-13T06:18:10;21.20;99.90
20070;DHT22;10195;50.868;4.382;2022-09-13T06:20:35;21.20;99.90
20070;DHT22;10195;50.868;4.382;2022-09-13T06:23:01;21.30;99.90
20070;DHT22;10195;50.868;4.382;2022-09-13T06:25:26;21.30;99.90
20070;DHT22;10195;50.868;4.382;2022-09-13T06:27:52;21.30;99.90
20070;DHT22;10195;50.868;4.382;2022-09-13T06:30:18;21.40;99.90
20070;DHT22;10195;50.868;4.382;2022-09-13T06:32:43;21.40;99.90
20070;DHT22;10195;50.868;4.382;2022-09-13T06:35:09;21.50;99.90
20070;DHT22;10195;50.868;4.382;2022-09-13T06:37:35;21.30;99.90
20070;DHT22;10195;50.868;4.382;2022-09-13T06:40:01;21.30;99.90
20070;DHT22;10195;50.868;4.382;2022-09-13T06:42:28;21.20;99.90
20070;DHT22;10195;50.868;4.382;2022-09-13T06:44:54;21.10;99.90
20070;DHT22;10195;50.868;4.382;2022-09-13T06:47:20;21.20;99.90
20070;DHT22;10195;50.868;4.382;2022-09-13T06:49:45;21.30;99.90
20070;DHT22;10195;50.868;4.382;2022-09-13T06:52:11;21.40;99.90
20070;DHT22;10195;50.868;4.382;2022-09-13T06:54:36;21.60;99.90
20070;DHT22;10195;50.868;4.382;2022-09-13T06:57:02;21.80;99.90
20070;DHT22;10195;50.868;4.382;2022-09-13T06:59:28;22.10;99.90
20070;DHT22;10195;50.868;4.382;2022-09-13T07:01:53;22.20;99.90
20070;DHT22;10195;50.868;4.382;2022-09-13T07:04:19;22.40;99.90
20070;DHT22;10195;50.868;4.382;2022-09-13T07:06:47;22.20;99.90
20070;DHT22;10195;50.868;4.382;2022-09-13T07:09:19;22.10;99.90
20070;DHT22;10195;50.868;4.382;2022-09-13T07:11:47;22.20;99.90
20070;DHT22;10195;50.868;4.382;2022-09-13T07:14:15;22.50;99.90
20070;DHT22;10195;50.868;4.382;2022-09-13T07:16:41;22.50;99.90
20070;DHT22;10195;50.868;4.382;2022-09-13T07:19:12;22.40;99.90
20070;DHT22;10195;50.868;4.382;2022-09-13T07:21:37;22.30;99.90
20070;DHT22;10195;50.868;4.382;2022-09-13T07:24:03;22.30;99.90
20070;DHT22;10195;50.868;4.382;2022-09-13T07:26:29;22.40;99.90
20070;DHT22;10195;50.868;4.382;2022-09-13T07:28:58;22.80;99.90
20070;DHT22;10195;50.868;4.382;2022-09-13T07:31:32;23.10;99.90
20070;DHT22;10195;50.868;4.382;2022-09-13T07:34:01;23.30;99.90
20070;DHT22;10195;50.868;4.382;2022-09-13T07:36:29;23.60;99.90
20070;DHT22;10195;50.868;4.382;2022-09-13T07:38:56;23.60;99.90
20070;DHT22;10195;50.868;4.382;2022-09-13T07:41:23;23.80;99.90
20070;DHT22;10195;50.868;4.382;2022-09-13T07:43:49;23.60;99.90
20070;DHT22;10195;50.868;4.382;2022-09-13T07:46:21;23.60;99.90
20070;DHT22;10195;50.868;4.382;2022-09-13T07:48:48;23.70;99.90
20070;DHT22;10195;50.868;4.382;2022-09-13T07:51:19;23.80;99.90
20070;DHT22;10195;50.868;4.382;2022-09-13T07:53:46;23.80;99.90
20070;DHT22;10195;50.868;4.382;2022-09-13T07:56:15;24.20;99.90
20070;DHT22;10195;50.868;4.382;2022-09-13T07:58:43;24.80;99.90
20070;DHT22;10195;50.868;4.382;2022-09-13T08:01:13;25.10;99.90
20070;DHT22;10195;50.868;4.382;2022-09-13T08:03:39;25.00;99.90
20070;DHT22;10195;50.868;4.382;2022-09-13T08:06:05;25.20;99.90
20070;DHT22;10195;50.868;4.382;2022-09-13T08:08:32;25.20;99.90
20070;DHT22;10195;50.868;4.382;2022-09-13T08:10:59;25.20;99.90
20070;DHT22;10195;50.868;4.382;2022-09-13T08:13:25;25.30;99.90
20070;DHT22;10195;50.868;4.382;2022-09-13T08:15:51;25.30;99.90
20070;DHT22;10195;50.868;4.382;2022-09-13T08:18:18;25.50;99.90
20070;DHT22;10195;50.868;4.382;2022-09-13T08:20:43;25.60;99.90
20070;DHT22;10195;50.868;4.382;2022-09-13T08:23:10;25.80;99.90
20070;DHT22;10195;50.868;4.382;2022-09-13T08:25:37;25.50;99.90
20070;DHT22;10195;50.868;4.382;2022-09-13T08:28:14;25.40;99.90
20070;DHT22;10195;50.868;4.382;2022-09-13T08:30:40;25.40;99.90
20070;DHT22;10195;50.868;4.382;2022-09-13T08:33:08;25.10;99.90
20070;DHT22;10195;50.868;4.382;2022-09-13T08:35:34;24.80;99.90
20070;DHT22;10195;50.868;4.382;2022-09-13T08:38:00;24.80;99.90
20070;DHT22;10195;50.868;4.382;2022-09-13T08:40:31;25.20;99.90
20070;DHT22;10195;50.868;4.382;2022-09-13T08:46:24;25.60;99.90
20070;DHT22;10195;50.868;4.382;2022-09-13T08:48:54;25.90;99.90
20070;DHT22;10195;50.868;4.382;2022-09-13T08:54:11;26.10;99.90
20070;DHT22;10195;50.868;4.382;2022-09-13T08:56:45;26.10;99.90
20070;DHT22;10195;50.868;4.382;2022-09-13T09:07:30;26.50;99.90
20070;DHT22;10195;50.868;4.382;2022-09-13T09:10:10;26.70;99.90
20070;DHT22;10195;50.868;4.382;2022-09-13T09:12:48;27.40;99.90
20070;DHT22;10195;50.868;4.382;2022-09-13T09:15:25;27.90;99.90
20070;DHT22;10195;50.868;4.382;2022-09-13T09:18:02;28.30;99.90
20070;DHT22;10195;50.868;4.382;2022-09-13T09:20:49;28.40;99.90
20070;DHT22;10195;50.868;4.382;2022-09-13T09:23:19;28.60;99.90
20070;DHT22;10195;50.868;4.382;2022-09-13T09:25:46;27.70;99.90
20070;DHT22;10195;50.868;4.382;2022-09-13T09:28:14;26.40;99.90
20070;DHT22;10195;50.868;4.382;2022-09-13T09:30:49;26.20;99.90
20070;DHT22;10195;50.868;4.382;2022-09-13T09:33:49;26.10;99.90
20070;DHT22;10195;50.868;4.382;2022-09-13T09:36:39;26.30;99.90
20070;DHT22;10195;50.868;4.382;2022-09-13T09:39:11;26.90;99.90
20070;DHT22;10195;50.868;4.382;2022-09-13T09:41:37;27.40;99.90
20070;DHT22;10195;50.868;4.382;2022-09-13T09:44:18;27.30;99.90
20070;DHT22;10195;50.868;4.382;2022-09-13T09:46:51;27.50;99.90
20070;DHT22;10195;50.868;4.382;2022-09-13T09:49:36;27.60;99.90
20070;DHT22;10195;50.868;4.382;2022-09-13T09:57:58;27.80;99.90
20070;DHT22;10195;50.868;4.382;2022-09-13T10:00:30;27.70;99.90
20070;DHT22;10195;50.868;4.382;2022-09-13T10:03:00;27.60;99.90
20070;DHT22;10195;50.868;4.382;2022-09-13T10:05:28;27.30;99.90
20070;DHT22;10195;50.868;4.382;2022-09-13T10:08:06;27.10;99.90
20070;DHT22;10195;50.868;4.382;2022-09-13T10:10:36;26.40;99.90
20070;DHT22;10195;50.868;4.382;2022-09-13T10:13:04;26.20;99.90
20070;DHT22;10195;50.868;4.382;2022-09-13T10:15:32;26.40;99.90
20070;DHT22;10195;50.868;4.382;2022-09-13T10:18:15;26.60;99.90
20070;DHT22;10195;50.868;4.382;2022-09-13T10:20:42;26.60;99.90
20070;DHT22;10195;50.868;4.382;2022-09-13T10:23:23;26.90;99.90
20070;DHT22;10195;50.868;4.382;2022-09-13T10:26:09;27.00;99.90
20070;DHT22;10195;50.868;4.382;2022-09-13T10:31:11;27.30;99.90
20070;DHT22;10195;50.868;4.382;2022-09-13T10:36:18;27.10;99.90
20070;DHT22;10195;50.868;4.382;2022-09-13T10:39:00;27.10;99.90
20070;DHT22;10195;50.868;4.382;2022-09-13T10:41:29;26.80;99.90
20070;DHT22;10195;50.868;4.382;2022-09-13T10:43:57;26.50;99.90
20070;DHT22;10195;50.868;4.382;2022-09-13T10:46:23;26.10;99.90
20070;DHT22;10195;50.868;4.382;2022-09-13T10:48:49;26.20;99.90
20070;DHT22;10195;50.868;4.382;2022-09-13T10:54:19;26.40;99.90
20070;DHT22;10195;50.868;4.382;2022-09-13T10:56:48;26.60;99.90
20070;DHT22;10195;50.868;4.382;2022-09-13T10:59:26;26.40;99.90
20070;DHT22;10195;50.868;4.382;2022-09-13T11:10:29;27.10;99.90
20070;DHT22;10195;50.868;4.382;2022-09-13T11:13:06;27.10;99.90
20070;DHT22;10195;50.868;4.382;2022-09-13T11:16:04;27.00;99.90
20070;DHT22;10195;50.868;4.382;2022-09-13T11:21:40;26.40;99.90
20070;DHT22;10195;50.868;4.382;2022-09-13T11:24:28;26.00;99.90
20070;DHT22;10195;50.868;4.382;2022-09-13T11:27:00;26.10;99.90
20070;DHT22;10195;50.868;4.382;2022-09-13T11:38:21;26.60;99.90
20070;DHT22;10195;50.868;4.382;2022-09-13T11:49:32;26.80;99.90
20070;DHT22;10195;50.868;4.382;2022-09-13T11:52:24;26.60;99.90
20070;DHT22;10195;50.868;4.382;2022-09-13T11:57:50;26.90;99.90
20070;DHT22;10195;50.868;4.382;2022-09-13T12:00:25;27.00;99.90
20070;DHT22;10195;50.868;4.382;2022-09-13T12:03:22;27.20;99.90
20070;DHT22;10195;50.868;4.382;2022-09-13T12:06:04;27.60;99.90
20070;DHT22;10195;50.868;4.382;2022-09-13T12:08:35;27.70;99.90
20070;DHT22;10195;50.868;4.382;2022-09-13T12:11:24;27.70;99.90
20070;DHT22;10195;50.868;4.382;2022-09-13T12:13:56;27.10;99.90
20070;DHT22;10195;50.868;4.382;2022-09-13T12:16:45;26.80;99.90
20070;DHT22;10195;50.868;4.382;2022-09-13T12:21:40;26.40;99.90
20070;DHT22;10195;50.868;4.382;2022-09-13T12:24:17;26.50;99.90
20070;DHT22;10195;50.868;4.382;2022-09-13T12:26:49;26.60;99.90
20070;DHT22;10195;50.868;4.382;2022-09-13T12:29:25;26.70;99.90
20070;DHT22;10195;50.868;4.382;2022-09-13T12:31:58;26.80;99.90
20070;DHT22;10195;50.868;4.382;2022-09-13T12:42:27;26.20;99.90
20070;DHT22;10195;50.868;4.382;2022-09-13T12:48:21;26.50;99.90
20070;DHT22;10195;50.868;4.382;2022-09-13T13:04:50;25.50;99.90
20070;DHT22;10195;50.868;4.382;2022-09-13T13:07:20;25.70;99.90
20070;DHT22;10195;50.868;4.382;2022-09-13T13:09:49;25.50;99.90
20070;DHT22;10195;50.868;4.382;2022-09-13T13:12:37;25.50;99.90
20070;DHT22;10195;50.868;4.382;2022-09-13T13:17:55;25.20;99.90
20070;DHT22;10195;50.868;4.382;2022-09-13T13:26:04;24.70;99.90
20070;DHT22;10195;50.868;4.382;2022-09-13T13:34:00;25.20;99.90
20070;DHT22;10195;50.868;4.382;2022-09-13T13:46:51;25.50;99.90
20070;DHT22;10195;50.868;4.382;2022-09-13T13:57:34;25.20;99.90
20070;DHT22;10195;50.868;4.382;2022-09-13T14:00:04;25.20;99.90
20070;DHT22;10195;50.868;4.382;2022-09-13T14:08:42;25.30;99.90
20070;DHT22;10195;50.868;4.382;2022-09-13T14:11:30;25.10;99.90
20070;DHT22;10195;50.868;4.382;2022-09-13T14:20:04;24.80;99.90
20070;DHT22;10195;50.868;4.382;2022-09-13T14:22:32;24.80;99.90
20070;DHT22;10195;50.868;4.382;2022-09-13T14:27:41;24.70;99.90
20070;DHT22;10195;50.868;4.382;2022-09-13T14:30:34;24.70;99.90
20070;DHT22;10195;50.868;4.382;2022-09-13T14:33:01;24.70;99.90
20070;DHT22;10195;50.868;4.382;2022-09-13T14:35:33;24.70;99.90
20070;DHT22;10195;50.868;4.382;2022-09-13T14:38:17;24.60;99.90
20070;DHT22;10195;50.868;4.382;2022-09-13T14:40:47;24.70;99.90
20070;DHT22;10195;50.868;4.382;2022-09-13T14:43:21;24.40;99.90
20070;DHT22;10195;50.868;4.382;2022-09-13T14:46:12;24.10;99.90
20070;DHT22;10195;50.868;4.382;2022-09-13T14:48:48;24.10;99.90
20070;DHT22;10195;50.868;4.382;2022-09-13T14:56:53;23.80;99.90
20070;DHT22;10195;50.868;4.382;2022-09-13T14:59:43;23.80;99.90
20070;DHT22;10195;50.868;4.382;2022-09-13T15:02:18;23.80;99.90
20070;DHT22;10195;50.868;4.382;2022-09-13T15:04:50;23.90;99.90
20070;DHT22;10195;50.868;4.382;2022-09-13T15:07:29;24.00;99.90
20070;DHT22;10195;50.868;4.382;2022-09-13T15:10:42;24.10;99.90
20070;DHT22;10195;50.868;4.382;2022-09-13T15:13:11;23.80;99.90
20070;DHT22;10195;50.868;4.382;2022-09-13T15:15:40;23.70;99.90
20070;DHT22;10195;50.868;4.382;2022-09-13T15:20:55;23.80;99.90
20070;DHT22;10195;50.868;4.382;2022-09-13T15:28:55;23.50;99.90
20070;DHT22;10195;50.868;4.382;2022-09-13T15:31:24;23.30;99.90
20070;DHT22;10195;50.868;4.382;2022-09-13T15:36:41;23.40;99.90
20070;DHT22;10195;50.868;4.382;2022-09-13T15:41:35;23.90;99.90
20070;DHT22;10195;50.868;4.382;2022-09-13T15:44:03;24.00;99.90
20070;DHT22;10195;50.868;4.382;2022-09-13T15:46:29;24.00;99.90
20070;DHT22;10195;50.868;4.382;2022-09-13T15:49:01;24.20;99.90
20070;DHT22;10195;50.868;4.382;2022-09-13T15:51:27;24.40;99.90
20070;DHT22;10195;50.868;4.382;2022-09-13T15:53:53;24.40;99.90
20070;DHT22;10195;50.868;4.382;2022-09-13T15:56:25;24.40;99.90
20070;DHT22;10195;50.868;4.382;2022-09-13T15:58:52;24.30;99.90
20070;DHT22;10195;50.868;4.382;2022-09-13T16:01:18;24.30;99.90
20070;DHT22;10195;50.868;4.382;2022-09-13T16:03:44;24.20;99.90
20070;DHT22;10195;50.868;4.382;2022-09-13T16:06:09;24.20;99.90
20070;DHT22;10195;50.868;4.382;2022-09-13T16:08:38;24.10;99.90
20070;DHT22;10195;50.868;4.382;2022-09-13T16:11:05;24.00;99.90
20070;DHT22;10195;50.868;4.382;2022-09-13T16:13:31;23.90;99.90
20070;DHT22;10195;50.868;4.382;2022-09-13T16:15:57;23.80;99.90
20070;DHT22;10195;50.868;4.382;2022-09-13T16:18:23;23.70;99.90
20070;DHT22;10195;50.868;4.382;2022-09-13T16:20:49;23.80;99.90
20070;DHT22;10195;50.868;4.382;2022-09-13T16:23:15;23.80;99.90
20070;DHT22;10195;50.868;4.382;2022-09-13T16:25:41;23.80;99.90
20070;DHT22;10195;50.868;4.382;2022-09-13T16:28:15;23.70;99.90
20070;DHT22;10195;50.868;4.382;2022-09-13T16:30:42;23.60;99.90
20070;DHT22;10195;50.868;4.382;2022-09-13T16:33:07;23.60;99.90
20070;DHT22;10195;50.868;4.382;2022-09-13T16:35:33;23.50;99.90
20070;DHT22;10195;50.868;4.382;2022-09-13T16:37:59;23.60;99.90
20070;DHT22;10195;50.868;4.382;2022-09-13T16:40:25;23.60;99.90
20070;DHT22;10195;50.868;4.382;2022-09-13T16:42:51;23.60;99.90
20070;DHT22;10195;50.868;4.382;2022-09-13T16:45:17;23.50;99.90
20070;DHT22;10195;50.868;4.382;2022-09-13T16:47:42;23.50;99.90
20070;DHT22;10195;50.868;4.382;2022-09-13T16:50:08;23.60;99.90
20070;DHT22;10195;50.868;4.382;2022-09-13T16:52:34;23.40;99.90
20070;DHT22;10195;50.868;4.382;2022-09-13T16:55:01;23.20;99.90
20070;DHT22;10195;50.868;4.382;2022-09-13T16:57:27;23.10;99.90
20070;DHT22;10195;50.868;4.382;2022-09-13T16:59:53;22.90;99.90
20070;DHT22;10195;50.868;4.382;2022-09-13T17:02:21;22.60;99.90
20070;DHT22;10195;50.868;4.382;2022-09-13T17:04:46;22.60;99.90
20070;DHT22;10195;50.868;4.382;2022-09-13T17:07:13;22.50;99.90
20070;DHT22;10195;50.868;4.382;2022-09-13T17:09:39;22.30;99.90
20070;DHT22;10195;50.868;4.382;2022-09-13T17:12:11;22.10;99.90
20070;DHT22;10195;50.868;4.382;2022-09-13T17:14:38;21.90;99.90
20070;DHT22;10195;50.868;4.382;2022-09-13T17:17:04;21.90;99.90
20070;DHT22;10195;50.868;4.382;2022-09-13T17:19:32;22.00;99.90
20070;DHT22;10195;50.868;4.382;2022-09-13T17:22:02;22.00;99.90
20070;DHT22;10195;50.868;4.382;2022-09-13T17:24:28;21.90;99.90
20070;DHT22;10195;50.868;4.382;2022-09-13T17:26:55;21.80;99.90
20070;DHT22;10195;50.868;4.382;2022-09-13T17:29:21;21.80;99.90
20070;DHT22;10195;50.868;4.382;2022-09-13T17:31:47;21.80;99.90
20070;DHT22;10195;50.868;4.382;2022-09-13T17:34:13;21.40;99.90
20070;DHT22;10195;50.868;4.382;2022-09-13T17:36:40;21.40;99.90
20070;DHT22;10195;50.868;4.382;2022-09-13T17:39:05;21.50;99.90
20070;DHT22;10195;50.868;4.382;2022-09-13T17:41:31;21.60;99.90
20070;DHT22;10195;50.868;4.382;2022-09-13T17:43:57;21.60;99.90
20070;DHT22;10195;50.868;4.382;2022-09-13T17:46:25;21.70;99.90
20070;DHT22;10195;50.868;4.382;2022-09-13T17:48:53;21.60;99.90
20070;DHT22;10195;50.868;4.382;2022-09-13T17:51:27;21.60;99.90
20070;DHT22;10195;50.868;4.382;2022-09-13T17:53:56;21.60;99.90
20070;DHT22;10195;50.868;4.382;2022-09-13T17:56:47;21.60;99.90
20070;DHT22;10195;50.868;4.382;2022-09-13T17:59:17;21.60;99.90
20070;DHT22;10195;50.868;4.382;2022-09-13T18:01:49;21.40;99.90
20070;DHT22;10195;50.868;4.382;2022-09-13T18:04:16;21.50;99.90
20070;DHT22;10195;50.868;4.382;2022-09-13T18:06:42;21.30;99.90
20070;DHT22;10195;50.868;4.382;2022-09-13T18:09:09;21.30;99.90
20070;DHT22;10195;50.868;4.382;2022-09-13T18:11:37;21.20;99.90
20070;DHT22;10195;50.868;4.382;2022-09-13T18:14:04;21.20;99.90
20070;DHT22;10195;50.868;4.382;2022-09-13T18:16:30;21.30;99.90
20070;DHT22;10195;50.868;4.382;2022-09-13T18:18:56;21.30;99.90
20070;DHT22;10195;50.868;4.382;2022-09-13T18:21:24;21.30;99.90
20070;DHT22;10195;50.868;4.382;2022-09-13T18:23:53;21.40;99.90
20070;DHT22;10195;50.868;4.382;2022-09-13T18:26:21;21.40;99.90
20070;DHT22;10195;50.868;4.382;2022-09-13T18:29:05;21.30;99.90
20070;DHT22;10195;50.868;4.382;2022-09-13T18:31:32;21.30;99.90
20070;DHT22;10195;50.868;4.382;2022-09-13T18:34:01;21.20;99.90
20070;DHT22;10195;50.868;4.382;2022-09-13T18:36:28;21.20;99.90
20070;DHT22;10195;50.868;4.382;2022-09-13T18:38:55;21.20;99.90
20070;DHT22;10195;50.868;4.382;2022-09-13T18:41:31;21.20;99.90
20070;DHT22;10195;50.868;4.382;2022-09-13T18:43:57;21.40;99.90
20070;DHT22;10195;50.868;4.382;2022-09-13T18:46:26;21.20;99.90
20070;DHT22;10195;50.868;4.382;2022-09-13T18:48:53;21.10;99.90
20070;DHT22;10195;50.868;4.382;2022-09-13T18:51:23;21.00;99.90
20070;DHT22;10195;50.868;4.382;2022-09-13T18:53:49;21.10;99.90
20070;DHT22;10195;50.868;4.382;2022-09-13T18:56:16;20.90;99.90
20070;DHT22;10195;50.868;4.382;2022-09-13T18:58:44;21.10;99.90
20070;DHT22;10195;50.868;4.382;2022-09-13T19:01:12;21.10;99.90
20070;DHT22;10195;50.868;4.382;2022-09-13T19:03:39;21.10;99.90
20070;DHT22;10195;50.868;4.382;2022-09-13T19:06:19;21.10;99.90
20070;DHT22;10195;50.868;4.382;2022-09-13T19:08:45;21.10;99.90
20070;DHT22;10195;50.868;4.382;2022-09-13T19:11:12;21.10;99.90
20070;DHT22;10195;50.868;4.382;2022-09-13T19:13:38;21.00;99.90